Time;durP1;ratioP1;P1;durP2;ratioP2;P2;SDS_P1;SDS_P2;PMS_P1;PMS_P2;Temp;Humidity;BMP_temperature;BMP_pressure;BME280_temperature;BME280_humidity;BME280_pressure;Samples;Min_cycle;Max_cycle;Signal;HPM_P1;HPM_P2
2022/05/03 00:01:42;0.00;0.00;0.62;0.00;0.00;0.62;1.87;1.10;;;28.10;21.20;;;;;;2241302;61;20561;-58
2022/05/03 00:04:37;0.00;0.00;0.62;0.00;0.00;0.62;2.77;1.30;;;28.20;21.20;;;;;;2244034;61;20372;-68
2022/05/03 00:07:27;0.00;0.00;0.62;0.00;0.00;0.62;1.67;1.10;;;28.10;21.10;;;;;;2244197;61;20369;-59
2022/05/03 00:10:18;0.00;0.00;0.62;0.00;0.00;0.62;1.50;0.97;;;28.10;21.10;;;;;;2244339;61;20935;-56
2022/05/03 00:13:08;0.00;0.00;0.62;0.00;0.00;0.62;1.60;1.10;;;28.10;21.10;;;;;;2243857;61;20401;-57
2022/05/03 00:15:55;0.00;0.00;0.62;0.00;0.00;0.62;1.83;1.07;;;28.10;21.10;;;;;;2243935;61;20372;-56
2022/05/03 00:18:41;0.00;0.00;0.62;0.00;0.00;0.62;3.20;1.40;;;28.10;21.00;;;;;;2244521;61;20447;-60
2022/05/03 00:21:27;0.00;0.00;0.62;0.00;0.00;0.62;1.40;0.97;;;28.00;20.90;;;;;;2243512;61;20418;-55
2022/05/03 00:24:11;0.00;0.00;0.62;0.00;0.00;0.62;1.60;1.03;;;28.00;20.90;;;;;;2244201;61;20427;-55
2022/05/03 00:26:58;0.00;0.00;0.62;0.00;0.00;0.62;2.10;1.50;;;28.00;20.90;;;;;;2244145;61;20369;-54
2022/05/03 00:29:43;0.00;0.00;0.62;0.00;0.00;0.62;1.70;1.20;;;27.90;20.80;;;;;;2243979;61;20376;-57
2022/05/03 00:32:28;0.00;0.00;0.62;0.00;0.00;0.62;1.80;1.43;;;27.90;20.80;;;;;;2243930;61;20404;-60
2022/05/03 00:35:15;0.00;0.00;0.62;0.00;0.00;0.62;2.00;1.30;;;27.90;20.80;;;;;;2243981;61;20448;-58
2022/05/03 00:38:00;0.00;0.00;0.62;0.00;0.00;0.62;1.43;1.13;;;27.90;20.80;;;;;;2244012;61;20396;-58
2022/05/03 00:40:52;0.00;0.00;0.62;0.00;0.00;0.62;1.97;1.20;;;27.90;20.80;;;;;;2244083;61;20396;-60
2022/05/03 00:43:52;0.00;0.00;0.62;0.00;0.00;0.62;2.17;1.17;;;27.80;20.70;;;;;;2243573;61;20388;-59
2022/05/03 00:46:39;0.00;0.00;0.62;0.00;0.00;0.62;1.77;1.23;;;27.80;20.80;;;;;;2244181;61;20368;-55
2022/05/03 00:49:31;0.00;0.00;0.62;0.00;0.00;0.62;1.43;0.80;;;27.80;20.70;;;;;;2244323;61;20412;-57
2022/05/03 00:52:25;0.00;0.00;0.62;0.00;0.00;0.62;1.50;1.00;;;27.80;20.80;;;;;;2244038;61;20384;-57
2022/05/03 00:55:43;0.00;0.00;0.62;0.00;0.00;0.62;1.50;1.00;;;27.70;20.80;;;;;;2245318;61;20395;-60
2022/05/03 00:58:57;0.00;0.00;0.62;0.00;0.00;0.62;2.70;1.10;;;27.70;20.70;;;;;;2244719;61;20461;-59
2022/05/03 01:01:54;0.00;0.00;0.62;0.00;0.00;0.62;2.77;1.37;;;27.70;20.70;;;;;;2244473;61;20391;-58
2022/05/03 01:04:48;0.00;0.00;0.62;0.00;0.00;0.62;1.83;1.00;;;27.60;20.70;;;;;;2244622;61;20420;-59
2022/05/03 01:07:36;0.00;0.00;0.62;0.00;0.00;0.62;1.50;1.03;;;27.60;20.70;;;;;;2244461;61;20841;-60
2022/05/03 01:10:31;0.00;0.00;0.62;0.00;0.00;0.62;1.40;1.03;;;27.50;20.70;;;;;;2244968;61;20416;-58
2022/05/03 01:13:26;0.00;0.00;0.62;0.00;0.00;0.62;2.63;1.20;;;27.50;20.70;;;;;;2244398;61;20488;-58
2022/05/03 01:16:31;0.00;0.00;0.62;0.00;0.00;0.62;1.90;1.07;;;27.50;20.70;;;;;;2245129;61;20933;-59
2022/05/03 01:19:38;0.00;0.00;0.62;0.00;0.00;0.62;1.90;1.20;;;27.50;20.70;;;;;;2244615;61;20372;-62
2022/05/03 01:23:23;0.00;0.00;0.62;0.00;0.00;0.62;1.70;1.30;;;27.50;20.70;;;;;;2244128;61;20947;-59
2022/05/03 01:26:45;0.00;0.00;0.62;0.00;0.00;0.62;2.17;1.13;;;27.40;20.60;;;;;;2242201;61;20388;-54
2022/05/03 01:29:33;0.00;0.00;0.62;0.00;0.00;0.62;1.77;1.20;;;27.40;20.50;;;;;;2244470;61;20404;-57
2022/05/03 01:32:19;0.00;0.00;0.62;0.00;0.00;0.62;2.93;1.50;;;27.40;20.50;;;;;;2244416;61;20400;-59
2022/05/03 01:35:06;0.00;0.00;0.62;0.00;0.00;0.62;2.17;1.00;;;27.30;20.40;;;;;;2244266;61;20376;-58
2022/05/03 01:38:10;0.00;0.00;0.62;0.00;0.00;0.62;1.63;1.10;;;27.30;20.40;;;;;;2244599;61;20497;-58
2022/05/03 01:41:25;0.00;0.00;0.62;0.00;0.00;0.62;1.90;1.27;;;27.30;20.40;;;;;;2244127;61;20463;-58
2022/05/03 01:44:22;0.00;0.00;0.62;0.00;0.00;0.62;1.67;1.20;;;27.20;20.40;;;;;;2244363;61;21449;-60
2022/05/03 01:47:18;0.00;0.00;0.62;0.00;0.00;0.62;1.50;1.07;;;27.20;20.30;;;;;;2244859;61;20356;-56
2022/05/03 01:50:18;0.00;0.00;0.62;0.00;0.00;0.62;1.77;1.10;;;27.20;20.30;;;;;;2244587;61;20377;-55
2022/05/03 01:53:16;0.00;0.00;0.62;0.00;0.00;0.62;1.63;1.20;;;27.20;20.30;;;;;;2244688;61;20456;-56
2022/05/03 01:56:40;0.00;0.00;0.62;0.00;0.00;0.62;1.63;0.97;;;27.10;20.20;;;;;;2244307;61;20885;-57
2022/05/03 01:59:36;0.00;0.00;0.62;0.00;0.00;0.62;1.97;1.13;;;27.10;20.20;;;;;;2244259;61;20944;-57
2022/05/03 02:02:39;0.00;0.00;0.62;0.00;0.00;0.62;1.90;0.97;;;27.10;20.30;;;;;;2244494;61;20447;-59
2022/05/03 02:05:53;0.00;0.00;0.62;0.00;0.00;0.62;1.40;1.00;;;27.00;20.10;;;;;;2244835;61;20424;-59
2022/05/03 02:08:53;0.00;0.00;0.62;0.00;0.00;0.62;1.77;1.13;;;27.00;20.20;;;;;;2244685;61;20388;-60
2022/05/03 02:12:04;0.00;0.00;0.62;0.00;0.00;0.62;1.60;1.10;;;27.00;20.20;;;;;;2244277;61;20412;-60
2022/05/03 02:14:52;0.00;0.00;0.62;0.00;0.00;0.62;1.60;1.20;;;27.00;20.20;;;;;;2244413;61;20415;-52
2022/05/03 02:18:01;0.00;0.00;0.62;0.00;0.00;0.62;1.37;0.90;;;26.90;20.20;;;;;;2244594;61;20472;-59
2022/05/03 02:21:10;0.00;0.00;0.62;0.00;0.00;0.62;2.13;1.40;;;26.90;20.20;;;;;;2243172;61;20392;-56
2022/05/03 02:24:02;0.00;0.00;0.62;0.00;0.00;0.62;1.77;1.23;;;26.90;20.20;;;;;;2244743;61;20375;-56
2022/05/03 02:26:54;0.00;0.00;0.62;0.00;0.00;0.62;2.60;1.27;;;26.80;20.20;;;;;;2244564;61;20416;-57
2022/05/03 02:29:46;0.00;0.00;0.62;0.00;0.00;0.62;2.10;1.23;;;26.80;20.20;;;;;;2244353;61;20941;-55
2022/05/03 02:32:40;0.00;0.00;0.62;0.00;0.00;0.62;1.57;1.13;;;26.80;20.20;;;;;;2243834;61;20528;-60
2022/05/03 02:35:33;0.00;0.00;0.62;0.00;0.00;0.62;1.80;1.13;;;26.80;20.20;;;;;;2244176;61;20412;-65
2022/05/03 02:38:24;0.00;0.00;0.62;0.00;0.00;0.62;2.10;1.43;;;26.80;20.20;;;;;;2244866;61;20369;-57
2022/05/03 02:41:11;0.00;0.00;0.62;0.00;0.00;0.62;1.83;1.10;;;26.70;20.10;;;;;;2243391;61;20839;-58
2022/05/03 02:43:56;0.00;0.00;0.62;0.00;0.00;0.62;1.63;1.10;;;26.70;20.20;;;;;;2244115;61;20459;-58
2022/05/03 02:46:56;0.00;0.00;0.62;0.00;0.00;0.62;1.70;1.10;;;26.70;20.10;;;;;;2244890;61;20801;-58
2022/05/03 02:50:00;0.00;0.00;0.62;0.00;0.00;0.62;1.50;1.17;;;26.60;20.10;;;;;;2249393;61;20395;-60
2022/05/03 02:53:01;0.00;0.00;0.62;0.00;0.00;0.62;1.50;0.90;;;26.60;20.20;;;;;;2244295;61;20444;-58
2022/05/03 02:55:50;0.00;0.00;0.62;0.00;0.00;0.62;1.73;1.50;;;26.60;20.20;;;;;;2244287;61;20408;-58
2022/05/03 02:58:47;0.00;0.00;0.62;0.00;0.00;0.62;1.70;1.27;;;26.60;20.20;;;;;;2244272;61;20416;-55
2022/05/03 03:01:49;0.00;0.00;0.62;0.00;0.00;0.62;1.47;1.10;;;26.50;20.20;;;;;;2244155;61;20436;-60
2022/05/03 03:04:41;0.00;0.00;0.62;0.00;0.00;0.62;1.40;1.00;;;26.50;20.20;;;;;;2244544;61;20412;-56
2022/05/03 03:07:28;0.00;0.00;0.62;0.00;0.00;0.62;2.40;1.57;;;26.50;20.20;;;;;;2244015;61;20408;-57
2022/05/03 03:10:21;0.00;0.00;0.62;0.00;0.00;0.62;2.20;1.50;;;26.50;20.20;;;;;;2244074;61;20379;-54
2022/05/03 03:13:23;0.00;0.00;0.62;0.00;0.00;0.62;2.00;1.60;;;26.40;20.10;;;;;;2243885;61;20384;-56
2022/05/03 03:16:12;0.00;0.00;0.62;0.00;0.00;0.62;1.80;1.40;;;26.40;20.10;;;;;;2244576;61;20910;-58
2022/05/03 03:18:59;0.00;0.00;0.62;0.00;0.00;0.62;3.30;1.43;;;26.40;20.10;;;;;;2244061;61;20369;-58
2022/05/03 03:21:48;0.00;0.00;0.62;0.00;0.00;0.62;1.63;1.20;;;26.30;20.10;;;;;;2243523;61;20420;-58
2022/05/03 03:24:36;0.00;0.00;0.62;0.00;0.00;0.62;1.50;1.10;;;26.40;20.20;;;;;;2243664;61;20854;-57
2022/05/03 03:27:24;0.00;0.00;0.62;0.00;0.00;0.62;1.70;1.37;;;26.30;20.10;;;;;;2244320;61;20364;-58
2022/05/03 03:30:12;0.00;0.00;0.62;0.00;0.00;0.62;1.57;1.20;;;26.30;20.20;;;;;;2244623;61;20393;-60
2022/05/03 03:32:57;0.00;0.00;0.62;0.00;0.00;0.62;2.13;1.30;;;26.30;20.20;;;;;;2244000;61;20388;-57
2022/05/03 03:35:43;0.00;0.00;0.62;0.00;0.00;0.62;1.70;1.10;;;26.20;20.10;;;;;;2244154;61;20369;-59
2022/05/03 03:38:36;0.00;0.00;0.62;0.00;0.00;0.62;2.37;1.43;;;26.20;20.00;;;;;;2244701;61;20380;-59
2022/05/03 03:41:21;0.00;0.00;0.62;0.00;0.00;0.62;2.00;1.43;;;26.20;20.10;;;;;;2243528;61;20396;-54
2022/05/03 03:44:07;0.00;0.00;0.62;0.00;0.00;0.62;2.40;1.20;;;26.20;20.10;;;;;;2244614;61;20780;-55
2022/05/03 03:46:51;0.00;0.00;0.62;0.00;0.00;0.62;2.67;1.30;;;26.20;20.10;;;;;;2244354;61;20396;-63
2022/05/03 03:49:37;0.00;0.00;0.62;0.00;0.00;0.62;1.40;1.20;;;26.20;20.10;;;;;;2243540;61;20416;-56
2022/05/03 03:52:26;0.00;0.00;0.62;0.00;0.00;0.62;1.60;1.30;;;26.10;20.00;;;;;;2243786;61;20420;-55
2022/05/03 03:55:12;0.00;0.00;0.62;0.00;0.00;0.62;1.67;1.27;;;26.10;20.10;;;;;;2244176;61;20420;-57
2022/05/03 03:57:57;0.00;0.00;0.62;0.00;0.00;0.62;1.57;1.17;;;26.10;20.00;;;;;;2244149;61;20365;-58
2022/05/03 04:00:44;0.00;0.00;0.62;0.00;0.00;0.62;1.60;1.10;;;26.00;20.00;;;;;;2244148;61;20388;-57
2022/05/03 04:03:30;0.00;0.00;0.62;0.00;0.00;0.62;1.60;1.10;;;26.00;20.00;;;;;;2243992;61;20396;-54
2022/05/03 04:06:15;0.00;0.00;0.62;0.00;0.00;0.62;1.80;1.23;;;26.00;20.00;;;;;;2244516;61;20932;-52
2022/05/03 04:08:59;0.00;0.00;0.62;0.00;0.00;0.62;1.67;1.20;;;26.00;20.00;;;;;;2244031;61;20371;-56
2022/05/03 04:11:45;0.00;0.00;0.62;0.00;0.00;0.62;1.50;1.20;;;26.00;20.00;;;;;;2243833;61;20401;-60
2022/05/03 04:14:31;0.00;0.00;0.62;0.00;0.00;0.62;1.43;1.07;;;25.90;20.00;;;;;;2244645;61;20373;-56
2022/05/03 04:17:17;0.00;0.00;0.62;0.00;0.00;0.62;1.50;1.10;;;25.90;20.00;;;;;;2244086;61;20392;-58
2022/05/03 04:20:02;0.00;0.00;0.62;0.00;0.00;0.62;1.70;1.40;;;25.90;20.10;;;;;;2244012;61;20689;-59
2022/05/03 04:22:46;0.00;0.00;0.62;0.00;0.00;0.62;1.70;1.10;;;25.90;20.10;;;;;;2244122;61;20399;-59
2022/05/03 04:25:32;0.00;0.00;0.62;0.00;0.00;0.62;1.70;1.33;;;25.90;20.10;;;;;;2698567;46;20417;-57
2022/05/03 04:28:17;0.00;0.00;0.62;0.00;0.00;0.62;1.83;1.23;;;25.80;20.00;;;;;;2240068;61;20370;-56
2022/05/03 04:31:02;0.00;0.00;0.62;0.00;0.00;0.62;1.40;1.00;;;25.80;20.10;;;;;;2239568;61;20408;-60
2022/05/03 04:33:48;0.00;0.00;0.62;0.00;0.00;0.62;2.47;1.23;;;25.80;20.10;;;;;;2240134;61;20514;-58
2022/05/03 04:36:33;0.00;0.00;0.62;0.00;0.00;0.62;1.80;1.57;;;25.80;20.10;;;;;;2240437;61;20377;-58
2022/05/03 04:39:18;0.00;0.00;0.62;0.00;0.00;0.62;1.87;1.10;;;25.80;20.10;;;;;;2240216;61;20462;-59
2022/05/03 04:42:04;0.00;0.00;0.62;0.00;0.00;0.62;1.50;1.23;;;25.70;20.10;;;;;;2239356;61;20401;-57
2022/05/03 04:44:49;0.00;0.00;0.62;0.00;0.00;0.62;2.30;1.20;;;25.70;20.10;;;;;;2242692;61;20421;-57
2022/05/03 04:47:33;0.00;0.00;0.62;0.00;0.00;0.62;2.77;1.40;;;25.70;20.10;;;;;;2240031;61;20954;-54
2022/05/03 04:50:19;0.00;0.00;0.62;0.00;0.00;0.62;1.90;1.67;;;25.70;20.10;;;;;;2239705;61;20775;-55
2022/05/03 04:53:03;0.00;0.00;0.62;0.00;0.00;0.62;1.97;1.30;;;25.70;20.10;;;;;;2239796;61;20385;-54
2022/05/03 04:55:48;0.00;0.00;0.62;0.00;0.00;0.62;2.23;1.47;;;25.70;20.10;;;;;;2239627;61;20930;-59
2022/05/03 04:58:32;0.00;0.00;0.62;0.00;0.00;0.62;1.97;1.23;;;25.70;20.10;;;;;;2239936;61;20512;-54
2022/05/03 05:01:19;0.00;0.00;0.62;0.00;0.00;0.62;1.63;1.30;;;25.60;20.00;;;;;;2239606;61;20970;-56
2022/05/03 05:04:03;0.00;0.00;0.62;0.00;0.00;0.62;1.97;1.40;;;25.60;20.00;;;;;;2239413;61;20559;-62
2022/05/03 05:06:49;0.00;0.00;0.62;0.00;0.00;0.62;2.77;1.40;;;25.50;20.00;;;;;;2239256;61;20373;-59
2022/05/03 05:09:34;0.00;0.00;0.62;0.00;0.00;0.62;1.70;1.10;;;25.50;20.00;;;;;;2244364;61;20787;-62
2022/05/03 05:12:19;0.00;0.00;0.62;0.00;0.00;0.62;2.43;1.20;;;25.50;20.10;;;;;;2238955;61;20413;-65
2022/05/03 05:15:05;0.00;0.00;0.62;0.00;0.00;0.62;1.53;1.20;;;25.50;20.10;;;;;;2239953;61;20384;-70
2022/05/03 05:17:49;0.00;0.00;0.62;0.00;0.00;0.62;1.50;1.00;;;25.50;20.20;;;;;;2239953;61;20458;-65
2022/05/03 05:20:34;0.00;0.00;0.62;0.00;0.00;0.62;1.40;1.10;;;25.50;20.30;;;;;;2239342;61;20445;-63
2022/05/03 05:23:20;0.00;0.00;0.62;0.00;0.00;0.62;1.80;1.17;;;25.50;20.30;;;;;;2239830;61;20958;-57
2022/05/03 05:26:04;0.00;0.00;0.62;0.00;0.00;0.62;1.50;1.10;;;25.50;20.40;;;;;;2243616;61;20389;-62
2022/05/03 05:28:49;0.00;0.00;0.62;0.00;0.00;0.62;1.60;1.33;;;25.50;20.40;;;;;;2244333;61;20563;-60
2022/05/03 05:31:34;0.00;0.00;0.62;0.00;0.00;0.62;1.60;1.30;;;25.50;20.40;;;;;;2243012;61;20492;-61
2022/05/03 05:34:19;0.00;0.00;0.62;0.00;0.00;0.62;2.60;1.23;;;25.40;20.40;;;;;;2243606;61;20436;-60
2022/05/03 05:37:04;0.00;0.00;0.62;0.00;0.00;0.62;1.40;1.10;;;25.40;20.40;;;;;;2244747;61;20461;-61
2022/05/03 05:39:49;0.00;0.00;0.62;0.00;0.00;0.62;2.43;1.30;;;25.40;20.40;;;;;;2243838;61;20369;-62
2022/05/03 05:42:34;0.00;0.00;0.62;0.00;0.00;0.62;2.00;1.40;;;25.40;20.40;;;;;;2243993;61;20960;-61
2022/05/03 05:45:19;0.00;0.00;0.62;0.00;0.00;0.62;1.40;1.10;;;25.40;20.40;;;;;;2244209;61;20380;-61
2022/05/03 05:48:04;0.00;0.00;0.62;0.00;0.00;0.62;2.10;1.50;;;25.40;20.40;;;;;;2244554;61;20367;-71
2022/05/03 05:50:49;0.00;0.00;0.62;0.00;0.00;0.62;2.33;1.47;;;25.40;20.30;;;;;;2244415;61;20896;-63
2022/05/03 05:53:33;0.00;0.00;0.62;0.00;0.00;0.62;1.80;1.20;;;25.40;20.30;;;;;;2244015;61;20826;-59
2022/05/03 05:56:19;0.00;0.00;0.62;0.00;0.00;0.62;1.80;1.30;;;25.40;20.40;;;;;;2244504;61;21081;-58
2022/05/03 05:59:04;0.00;0.00;0.62;0.00;0.00;0.62;2.20;1.30;;;25.40;20.40;;;;;;2244426;61;20373;-62
2022/05/03 06:01:51;0.00;0.00;0.62;0.00;0.00;0.62;2.90;1.40;;;25.40;20.40;;;;;;2243711;61;20917;-61
2022/05/03 06:04:36;0.00;0.00;0.62;0.00;0.00;0.62;2.83;1.40;;;25.30;20.30;;;;;;2244573;61;20384;-63
2022/05/03 06:07:20;0.00;0.00;0.62;0.00;0.00;0.62;2.03;1.40;;;25.40;20.40;;;;;;2244224;61;21202;-63
2022/05/03 06:10:06;0.00;0.00;0.62;0.00;0.00;0.62;2.67;1.10;;;25.30;20.30;;;;;;2244866;61;20782;-66
2022/05/03 06:12:53;0.00;0.00;0.62;0.00;0.00;0.62;5.43;1.50;;;25.30;20.30;;;;;;2244688;61;20442;-55
2022/05/03 06:15:38;0.00;0.00;0.62;0.00;0.00;0.62;1.80;1.10;;;25.30;20.40;;;;;;2247956;61;20503;-53
2022/05/03 06:18:22;0.00;0.00;0.62;0.00;0.00;0.62;5.53;1.50;;;25.30;20.40;;;;;;2248637;61;20399;-62
2022/05/03 06:21:07;0.00;0.00;0.62;0.00;0.00;0.62;1.90;1.40;;;25.30;20.40;;;;;;2247763;61;20411;-59
2022/05/03 06:23:52;0.00;0.00;0.62;0.00;0.00;0.62;1.83;1.30;;;25.30;20.50;;;;;;2248040;61;20387;-59
2022/05/03 06:26:36;0.00;0.00;0.62;0.00;0.00;0.62;2.20;1.47;;;25.30;20.50;;;;;;2248295;61;20762;-64
2022/05/03 06:29:22;0.00;0.00;0.62;0.00;0.00;0.62;5.53;2.30;;;25.30;20.60;;;;;;2247523;61;20372;-62
2022/05/03 06:32:08;0.00;0.00;0.62;0.00;0.00;0.62;2.57;1.40;;;25.20;20.50;;;;;;2248243;61;20479;-65
2022/05/03 06:34:53;0.00;0.00;0.62;0.00;0.00;0.62;2.13;1.30;;;25.20;20.60;;;;;;2247312;61;20415;-60
2022/05/03 06:37:40;0.00;0.00;0.62;0.00;0.00;0.62;2.77;1.30;;;25.30;21.20;;;;;;2243854;61;20416;-60
2022/05/03 06:40:25;0.00;0.00;0.62;0.00;0.00;0.62;2.67;1.20;;;25.30;20.70;;;;;;2244105;61;20381;-66
2022/05/03 06:43:10;0.00;0.00;0.62;0.00;0.00;0.62;1.80;1.40;;;25.30;20.70;;;;;;2244259;61;20388;-63
2022/05/03 06:45:56;0.00;0.00;0.62;0.00;0.00;0.62;2.40;1.30;;;25.20;20.60;;;;;;2243713;61;20389;-58
2022/05/03 06:48:41;0.00;0.00;0.62;0.00;0.00;0.62;3.37;1.60;;;25.20;20.70;;;;;;2244254;61;20416;-60
2022/05/03 06:51:26;0.00;0.00;0.62;0.00;0.00;0.62;2.90;1.60;;;25.20;20.70;;;;;;2244051;61;20806;-56
2022/05/03 06:54:11;0.00;0.00;0.62;0.00;0.00;0.62;1.90;1.20;;;25.20;20.60;;;;;;2244080;61;20508;-57
2022/05/03 06:56:55;0.00;0.00;0.62;0.00;0.00;0.62;1.93;1.10;;;25.30;20.70;;;;;;2545580;45;20369;-58
2022/05/03 06:59:40;0.00;0.00;0.62;0.00;0.00;0.62;1.70;1.50;;;25.20;20.60;;;;;;2243960;61;20368;-55
2022/05/03 07:02:30;0.00;0.00;0.62;0.00;0.00;0.62;1.60;1.10;;;25.20;20.70;;;;;;2243739;61;20396;-65
2022/05/03 07:05:14;0.00;0.00;0.62;0.00;0.00;0.62;2.77;1.03;;;25.20;20.70;;;;;;2244579;61;20377;-66
2022/05/03 07:07:59;0.00;0.00;0.62;0.00;0.00;0.62;1.40;1.00;;;25.30;20.80;;;;;;2243699;61;20796;-61
2022/05/03 07:10:44;0.00;0.00;0.62;0.00;0.00;0.62;1.93;1.20;;;25.20;20.80;;;;;;2243592;61;20372;-61
2022/05/03 07:13:29;0.00;0.00;0.62;0.00;0.00;0.62;1.93;1.20;;;25.30;20.90;;;;;;2244643;61;20424;-59
2022/05/03 07:16:13;0.00;0.00;0.62;0.00;0.00;0.62;2.73;1.40;;;25.30;20.90;;;;;;2244400;61;20376;-59
2022/05/03 07:25:07;0.00;0.00;0.62;0.00;0.00;0.62;2.23;1.23;;;25.30;21.00;;;;;;2244249;61;20866;-57
2022/05/03 07:27:52;0.00;0.00;0.62;0.00;0.00;0.62;2.90;1.33;;;25.30;20.90;;;;;;2244301;61;20408;-56
2022/05/03 07:30:37;0.00;0.00;0.62;0.00;0.00;0.62;1.70;1.10;;;25.30;21.00;;;;;;2243476;61;20904;-58
2022/05/03 07:33:21;0.00;0.00;0.62;0.00;0.00;0.62;2.33;1.20;;;25.30;20.90;;;;;;2243596;61;20968;-59
2022/05/03 07:36:09;0.00;0.00;0.62;0.00;0.00;0.62;1.90;1.30;;;25.30;20.90;;;;;;2243862;61;20977;-58
2022/05/03 07:38:53;0.00;0.00;0.62;0.00;0.00;0.62;2.40;1.10;;;25.40;21.00;;;;;;2244369;61;20408;-58
2022/05/03 07:41:38;0.00;0.00;0.62;0.00;0.00;0.62;2.47;1.10;;;25.30;21.00;;;;;;2243671;61;21021;-59
2022/05/03 07:44:23;0.00;0.00;0.62;0.00;0.00;0.62;2.13;1.13;;;25.40;21.00;;;;;;2243955;61;20781;-59
2022/05/03 07:47:07;0.00;0.00;0.62;0.00;0.00;0.62;1.77;1.23;;;25.40;21.00;;;;;;2244169;61;20827;-55
2022/05/03 07:49:53;0.00;0.00;0.62;0.00;0.00;0.62;2.23;1.10;;;25.40;21.00;;;;;;2244116;61;20372;-58
2022/05/03 07:52:39;0.00;0.00;0.62;0.00;0.00;0.62;2.00;1.17;;;25.40;21.00;;;;;;2243422;61;20412;-53
2022/05/03 07:55:24;0.00;0.00;0.62;0.00;0.00;0.62;1.90;1.10;;;25.40;21.00;;;;;;2244341;61;20775;-53
2022/05/03 07:58:09;0.00;0.00;0.62;0.00;0.00;0.62;1.33;0.80;;;25.50;21.10;;;;;;2243072;61;20393;-58
2022/05/03 08:00:54;0.00;0.00;0.62;0.00;0.00;0.62;1.80;1.20;;;25.50;21.00;;;;;;2243919;61;20364;-60
2022/05/03 08:03:38;0.00;0.00;0.62;0.00;0.00;0.62;1.57;1.03;;;25.50;21.00;;;;;;2244302;61;20436;-59
2022/05/03 08:06:26;0.00;0.00;0.62;0.00;0.00;0.62;1.90;1.03;;;25.50;21.00;;;;;;2243931;61;20385;-60
2022/05/03 08:09:12;0.00;0.00;0.62;0.00;0.00;0.62;2.00;1.27;;;25.50;21.00;;;;;;2243960;61;20365;-59
2022/05/03 08:11:57;0.00;0.00;0.62;0.00;0.00;0.62;2.30;0.90;;;25.50;21.00;;;;;;2243568;61;20480;-61
2022/05/03 08:14:41;0.00;0.00;0.62;0.00;0.00;0.62;3.07;1.10;;;25.50;21.00;;;;;;2243344;61;20446;-60
2022/05/03 08:17:27;0.00;0.00;0.62;0.00;0.00;0.62;1.60;1.00;;;25.50;21.00;;;;;;2243852;61;20428;-60
2022/05/03 08:20:13;0.00;0.00;0.62;0.00;0.00;0.62;1.60;1.00;;;25.60;21.10;;;;;;2244174;61;20384;-57
2022/05/03 08:22:58;0.00;0.00;0.62;0.00;0.00;0.62;3.47;1.27;;;25.60;21.00;;;;;;2244048;61;20725;-59
2022/05/03 08:25:44;0.00;0.00;0.62;0.00;0.00;0.62;1.30;0.90;;;25.50;21.00;;;;;;2243998;61;20560;-55
2022/05/03 08:28:29;0.00;0.00;0.62;0.00;0.00;0.62;1.80;0.90;;;25.60;21.00;;;;;;2243522;61;20373;-61
2022/05/03 08:31:13;0.00;0.00;0.62;0.00;0.00;0.62;1.40;1.00;;;25.60;21.00;;;;;;2243653;61;20824;-59
2022/05/03 08:34:02;0.00;0.00;0.62;0.00;0.00;0.62;1.50;1.00;;;25.60;21.10;;;;;;2244285;61;20360;-60
2022/05/03 08:42:01;0.00;0.00;0.62;0.00;0.00;0.62;1.70;0.90;;;25.60;21.00;;;;;;2243664;61;20397;-58
2022/05/03 08:42:56;0.00;0.00;0.62;0.00;0.00;0.62;1.40;0.90;;;25.60;21.00;;;;;;2243255;61;20960;-60
2022/05/03 08:45:45;0.00;0.00;0.62;0.00;0.00;0.62;1.60;1.20;;;25.70;21.10;;;;;;2243995;61;20415;-60
2022/05/03 08:48:34;0.00;0.00;0.62;0.00;0.00;0.62;2.03;1.30;;;25.60;21.10;;;;;;2244114;61;20371;-60
2022/05/03 08:51:22;0.00;0.00;0.62;0.00;0.00;0.62;2.33;1.27;;;25.70;21.10;;;;;;2243312;61;20364;-58
2022/05/03 08:54:07;0.00;0.00;0.62;0.00;0.00;0.62;1.73;1.03;;;25.70;21.10;;;;;;2243891;61;20840;-58
2022/05/03 08:56:51;0.00;0.00;0.62;0.00;0.00;0.62;1.70;1.00;;;25.70;21.10;;;;;;2243798;61;20780;-59
2022/05/03 08:59:38;0.00;0.00;0.62;0.00;0.00;0.62;2.03;1.17;;;25.70;21.10;;;;;;2244065;61;20384;-61
2022/05/03 09:02:22;0.00;0.00;0.62;0.00;0.00;0.62;1.70;0.97;;;25.70;21.20;;;;;;2243414;61;20400;-58
2022/05/03 09:05:08;0.00;0.00;0.62;0.00;0.00;0.62;1.70;1.20;;;25.70;21.10;;;;;;2243709;61;20364;-59
2022/05/03 09:07:56;0.00;0.00;0.62;0.00;0.00;0.62;1.80;1.30;;;25.70;21.10;;;;;;2243861;61;20361;-60
2022/05/03 09:10:44;0.00;0.00;0.62;0.00;0.00;0.62;2.40;1.50;;;25.70;21.10;;;;;;2243714;61;20831;-58
2022/05/03 09:13:32;0.00;0.00;0.62;0.00;0.00;0.62;1.70;1.20;;;25.70;21.10;;;;;;2244254;61;20401;-58
2022/05/03 09:16:20;0.00;0.00;0.62;0.00;0.00;0.62;1.90;1.27;;;25.70;21.10;;;;;;2244719;61;20498;-59
2022/05/03 09:19:22;0.00;0.00;0.62;0.00;0.00;0.62;1.73;1.30;;;25.80;21.20;;;;;;2244783;61;20365;-58
2022/05/03 09:25:13;0.00;0.00;0.62;0.00;0.00;0.62;2.53;1.60;;;25.80;21.30;;;;;;2244598;61;20415;-60
2022/05/03 09:28:05;0.00;0.00;0.62;0.00;0.00;0.62;2.40;1.77;;;25.80;21.30;;;;;;2244238;61;20465;-56
2022/05/03 09:30:52;0.00;0.00;0.62;0.00;0.00;0.62;1.63;1.37;;;25.80;21.40;;;;;;2244241;61;20400;-66
2022/05/03 09:33:39;0.00;0.00;0.62;0.00;0.00;0.62;1.97;1.60;;;25.80;21.40;;;;;;2244465;61;20920;-63
2022/05/03 09:36:24;0.00;0.00;0.62;0.00;0.00;0.62;1.90;1.40;;;25.80;21.40;;;;;;2244312;61;20411;-65
2022/05/03 09:39:19;0.00;0.00;0.62;0.00;0.00;0.62;2.13;1.47;;;25.90;21.40;;;;;;2244199;61;20403;-63
2022/05/03 09:42:09;0.00;0.00;0.62;0.00;0.00;0.62;2.00;1.40;;;25.80;21.50;;;;;;2243541;61;20529;-58
2022/05/03 09:44:55;0.00;0.00;0.62;0.00;0.00;0.62;2.20;1.60;;;25.90;21.50;;;;;;2244597;61;20448;-54
2022/05/03 09:47:49;0.00;0.00;0.62;0.00;0.00;0.62;1.73;1.23;;;25.90;21.50;;;;;;2244880;61;20381;-58
2022/05/03 09:50:42;0.00;0.00;0.62;0.00;0.00;0.62;1.50;1.17;;;25.90;21.50;;;;;;2243750;61;20368;-58
2022/05/03 09:53:28;0.00;0.00;0.62;0.00;0.00;0.62;1.70;1.30;;;26.00;21.60;;;;;;2244444;61;20447;-60
2022/05/03 09:56:13;0.00;0.00;0.62;0.00;0.00;0.62;2.40;1.90;;;26.00;21.60;;;;;;2244759;61;20403;-61
2022/05/03 09:59:07;0.00;0.00;0.62;0.00;0.00;0.62;2.67;1.60;;;26.00;21.60;;;;;;2244624;61;20459;-57
2022/05/03 10:01:52;0.00;0.00;0.62;0.00;0.00;0.62;3.67;1.80;;;26.00;21.60;;;;;;2243821;61;20392;-57
2022/05/03 10:04:37;0.00;0.00;0.62;0.00;0.00;0.62;2.27;1.63;;;26.00;21.60;;;;;;2244359;61;20933;-60
2022/05/03 10:07:24;0.00;0.00;0.62;0.00;0.00;0.62;2.33;1.53;;;26.10;21.60;;;;;;2244009;61;20420;-59
2022/05/03 10:10:11;0.00;0.00;0.62;0.00;0.00;0.62;2.07;1.83;;;26.10;21.60;;;;;;2244069;61;20395;-53
2022/05/03 10:12:55;0.00;0.00;0.62;0.00;0.00;0.62;1.90;1.57;;;26.10;21.60;;;;;;2244091;61;20416;-59
2022/05/03 10:22:05;0.00;0.00;0.62;0.00;0.00;0.62;2.50;1.60;;;26.20;21.70;;;;;;2243484;61;20440;-55
2022/05/03 10:24:54;0.00;0.00;0.62;0.00;0.00;0.62;2.27;1.60;;;26.20;21.70;;;;;;2244450;61;20820;-60
2022/05/03 10:27:55;0.00;0.00;0.62;0.00;0.00;0.62;1.97;1.60;;;26.20;21.70;;;;;;2243797;61;20368;-53
2022/05/03 10:31:11;0.00;0.00;0.62;0.00;0.00;0.62;1.90;1.40;;;26.20;21.70;;;;;;2243933;61;20452;-57
2022/05/03 10:33:57;0.00;0.00;0.62;0.00;0.00;0.62;1.80;1.40;;;26.20;21.70;;;;;;2243741;61;20869;-59
2022/05/03 10:36:43;0.00;0.00;0.62;0.00;0.00;0.62;2.73;1.63;;;26.30;21.70;;;;;;2244535;61;20416;-59
2022/05/03 10:39:28;0.00;0.00;0.62;0.00;0.00;0.62;2.77;1.90;;;26.30;21.70;;;;;;2244457;61;20368;-59
2022/05/03 10:42:16;0.00;0.00;0.62;0.00;0.00;0.62;2.37;1.70;;;26.30;21.70;;;;;;2243290;61;20412;-57
2022/05/03 10:45:05;0.00;0.00;0.62;0.00;0.00;0.62;2.13;1.40;;;26.30;21.70;;;;;;2243952;61;20373;-56
2022/05/03 10:47:54;0.00;0.00;0.62;0.00;0.00;0.62;2.50;1.83;;;26.30;21.70;;;;;;2244370;61;20369;-55
2022/05/03 10:50:43;0.00;0.00;0.62;0.00;0.00;0.62;2.33;1.87;;;26.40;21.80;;;;;;2243453;61;20365;-53
2022/05/03 10:53:32;0.00;0.00;0.62;0.00;0.00;0.62;2.30;1.40;;;26.40;21.80;;;;;;2243707;61;20903;-61
2022/05/03 10:56:19;0.00;0.00;0.62;0.00;0.00;0.62;1.60;1.20;;;26.40;21.70;;;;;;2243906;61;20369;-58
2022/05/03 10:59:18;0.00;0.00;0.62;0.00;0.00;0.62;2.07;1.60;;;26.50;21.80;;;;;;2244342;61;20917;-58
2022/05/03 11:02:07;0.00;0.00;0.62;0.00;0.00;0.62;1.90;1.40;;;26.50;21.80;;;;;;2243863;61;20401;-56
2022/05/03 11:05:14;0.00;0.00;0.62;0.00;0.00;0.62;2.07;1.30;;;26.50;21.80;;;;;;2243890;61;20439;-58
2022/05/03 11:08:16;0.00;0.00;0.62;0.00;0.00;0.62;2.00;1.57;;;26.60;21.80;;;;;;2244269;61;20457;-56
2022/05/03 11:11:01;0.00;0.00;0.62;0.00;0.00;0.62;2.33;1.50;;;26.60;21.80;;;;;;2243316;61;20399;-58
2022/05/03 11:13:46;0.00;0.00;0.62;0.00;0.00;0.62;2.40;1.30;;;26.60;21.80;;;;;;2244184;61;20436;-57
2022/05/03 11:16:34;0.00;0.00;0.62;0.00;0.00;0.62;1.93;1.53;;;26.70;21.80;;;;;;2244491;61;20372;-53
2022/05/03 11:19:22;0.00;0.00;0.62;0.00;0.00;0.62;1.70;1.47;;;26.70;21.90;;;;;;2243359;61;20400;-57
2022/05/03 11:22:10;0.00;0.00;0.62;0.00;0.00;0.62;1.77;1.47;;;26.70;21.90;;;;;;2243365;61;20826;-56
2022/05/03 11:24:59;0.00;0.00;0.62;0.00;0.00;0.62;2.03;1.20;;;26.70;21.80;;;;;;2244229;61;20361;-60
2022/05/03 11:27:44;0.00;0.00;0.62;0.00;0.00;0.62;2.80;1.57;;;26.70;21.90;;;;;;2244326;61;20432;-58